createdAt,value
2019-06-08T00:00:26.749Z,67.20
2019-06-08T00:01:26.734Z,67.71
2019-06-08T00:02:26.762Z,67.00
2019-06-08T00:03:26.736Z,67.91
2019-06-08T00:04:26.702Z,67.00
2019-06-08T00:05:26.684Z,67.71
2019-06-08T00:06:26.677Z,67.50
2019-06-08T00:07:26.661Z,67.44
2019-06-08T00:08:26.680Z,67.91
2019-06-08T00:09:26.647Z,67.74
2019-06-08T00:10:26.625Z,67.94
2019-06-08T00:11:26.621Z,67.54
2019-06-08T00:12:26.607Z,68.22
2019-06-08T00:13:26.594Z,67.91
2019-06-08T00:14:26.604Z,67.84
2019-06-08T00:15:26.578Z,67.61
2019-06-08T00:16:26.564Z,67.81
2019-06-08T00:17:37.469Z,67.50
2019-06-08T00:18:27.534Z,68.01
2019-06-08T00:19:26.564Z,67.50
2019-06-08T00:20:26.552Z,67.71
2019-06-08T00:21:26.510Z,67.91
2019-06-08T00:22:26.490Z,67.41
2019-06-08T00:23:26.481Z,67.41
2019-06-08T00:24:26.503Z,67.20
2019-06-08T00:25:26.457Z,67.91
2019-06-08T00:26:26.469Z,67.50
2019-06-08T00:27:26.435Z,67.41
2019-06-08T00:28:26.423Z,67.30
2019-06-08T00:29:26.414Z,67.20
2019-06-08T00:30:26.424Z,67.71
2019-06-08T00:31:26.400Z,67.61
2019-06-08T00:32:26.397Z,67.91
2019-06-08T00:33:26.372Z,67.41
2019-06-08T00:34:26.356Z,67.91
2019-06-08T00:35:26.383Z,67.30
2019-06-08T00:36:26.349Z,67.47
2019-06-08T00:37:26.324Z,68.08
2019-06-08T00:38:26.352Z,68.08
2019-06-08T00:39:26.319Z,67.91
2019-06-08T00:40:26.309Z,68.90
2019-06-08T00:41:26.284Z,67.78
2019-06-08T00:42:26.277Z,67.78
2019-06-08T00:43:26.254Z,67.88
2019-06-08T00:44:26.307Z,67.88
2019-06-08T00:45:26.235Z,66.69
2019-06-08T00:46:26.220Z,66.36
2019-06-08T00:47:26.911Z,67.58
2019-06-08T00:48:26.196Z,67.78
2019-06-08T00:49:26.185Z,67.68
2019-06-08T00:50:26.236Z,67.78
2019-06-08T00:51:26.175Z,68.49
2019-06-08T00:52:26.151Z,68.83
2019-06-08T00:53:26.155Z,68.52
2019-06-08T00:54:26.141Z,69.54
2019-06-08T00:55:26.124Z,69.95
2019-06-08T00:56:26.190Z,69.54
2019-06-08T00:57:26.125Z,69.95
2019-06-08T00:58:26.431Z,69.95
2019-06-08T00:59:26.313Z,69.95
2019-06-08T01:00:26.704Z,70.25
2019-06-08T01:01:27.988Z,68.93
2019-06-08T01:02:26.768Z,68.32
2019-06-08T01:03:26.043Z,68.12
2019-06-08T01:04:27.180Z,69.34
2019-06-08T01:05:26.156Z,69.51
2019-06-08T01:06:27.388Z,70.11
2019-06-08T01:07:26.276Z,69.10
2019-06-08T01:08:27.381Z,68.59
2019-06-08T01:09:26.354Z,67.78
2019-06-08T01:10:25.957Z,67.68
2019-06-08T01:11:26.954Z,68.70
2019-06-08T01:12:26.824Z,67.44
2019-06-08T01:13:26.950Z,67.38
2019-06-08T01:14:27.055Z,67.55
2019-06-08T01:15:31.104Z,67.65
2019-06-08T01:16:27.117Z,67.85
2019-06-08T01:17:27.281Z,67.55
2019-06-08T01:18:26.260Z,66.63
2019-06-08T01:19:25.857Z,67.55
2019-06-08T01:20:25.859Z,67.95
2019-06-08T01:21:25.828Z,67.75
2019-06-08T01:22:25.823Z,67.75
2019-06-08T01:23:25.841Z,69.47
2019-06-08T01:24:25.794Z,67.65
2019-06-08T01:25:25.889Z,67.85
2019-06-08T01:26:26.084Z,67.41
2019-06-08T01:27:26.098Z,66.43
2019-06-08T01:28:26.140Z,66.70
2019-06-08T01:29:26.295Z,66.53
2019-06-08T01:30:26.320Z,66.94
2019-06-08T01:31:26.560Z,67.00
2019-06-08T01:32:26.389Z,68.87
2019-06-08T01:33:26.571Z,67.95
2019-06-08T01:34:27.023Z,67.92
2019-06-08T01:35:26.911Z,67.21
2019-06-08T01:36:27.389Z,67.31
2019-06-08T01:37:26.929Z,67.31
2019-06-08T01:38:25.665Z,67.31
2019-06-08T01:39:25.626Z,67.21
2019-06-08T01:40:25.624Z,67.82
2019-06-08T01:41:25.612Z,67.34
2019-06-08T01:42:25.606Z,67.41
2019-06-08T01:43:25.866Z,67.65
2019-06-08T01:44:25.702Z,67.95
2019-06-08T01:45:25.692Z,67.65
2019-06-08T01:46:25.887Z,66.80
2019-06-08T01:47:26.190Z,67.72
2019-06-08T01:48:26.247Z,67.21
2019-06-08T01:49:26.188Z,67.85
2019-06-08T01:50:26.427Z,67.85
2019-06-08T01:51:26.550Z,68.26
2019-06-08T01:52:26.571Z,67.51
2019-06-08T01:53:26.722Z,67.34
2019-06-08T01:54:26.803Z,67.51
2019-06-08T01:55:25.449Z,67.92
2019-06-08T01:56:25.478Z,67.34
2019-06-08T01:57:25.421Z,67.51
2019-06-08T01:58:25.423Z,67.82
2019-06-08T01:59:25.408Z,67.51
2019-06-08T02:00:30.205Z,67.41
2019-06-08T02:01:27.656Z,67.44
2019-06-08T02:02:25.933Z,67.82
2019-06-08T02:03:26.285Z,68.26
2019-06-08T02:04:26.013Z,68.87
2019-06-08T02:05:26.075Z,68.52
2019-06-08T02:06:26.163Z,68.02
2019-06-08T02:07:26.340Z,68.46
2019-06-08T02:08:26.572Z,67.00
2019-06-08T02:09:26.522Z,67.31
2019-06-08T02:10:26.403Z,67.95
2019-06-08T02:11:26.589Z,67.75
2019-06-08T02:12:26.639Z,67.85
2019-06-08T02:13:25.244Z,67.72
2019-06-08T02:14:25.260Z,68.56
2019-06-08T02:15:25.324Z,68.32
2019-06-08T02:16:25.643Z,68.32
2019-06-08T02:17:25.213Z,68.12
2019-06-08T02:18:36.622Z,67.72
2019-06-08T02:19:26.551Z,67.72
2019-06-08T02:20:26.288Z,67.95
2019-06-08T02:21:26.661Z,67.82
2019-06-08T02:22:25.174Z,67.65
2019-06-08T02:23:25.138Z,68.32
2019-06-08T02:24:25.116Z,68.52
2019-06-08T02:25:25.125Z,68.02
2019-06-08T02:26:27.546Z,69.07
2019-06-08T02:27:25.084Z,69.57
2019-06-08T02:28:25.086Z,69.37
2019-06-08T02:29:25.065Z,69.07
2019-06-08T02:30:25.050Z,68.87
2019-06-08T02:31:25.047Z,68.76
2019-06-08T02:32:25.062Z,68.56
2019-06-08T02:33:25.051Z,67.85
2019-06-08T02:34:25.007Z,67.75
2019-06-08T02:35:24.996Z,67.65
2019-06-08T02:36:24.992Z,66.94
2019-06-08T02:37:24.973Z,66.60
2019-06-08T02:38:25.032Z,66.13
2019-06-08T02:39:25.035Z,65.72
2019-06-08T02:40:24.940Z,65.89
2019-06-08T02:41:24.961Z,65.59
2019-06-08T02:42:24.920Z,65.28
2019-06-08T02:43:24.912Z,65.52
2019-06-08T02:44:24.973Z,64.81
2019-06-08T02:45:24.881Z,64.17
2019-06-08T02:46:24.882Z,64.50
2019-06-08T02:47:24.870Z,65.11
2019-06-08T02:48:24.850Z,64.37
2019-06-08T02:49:24.876Z,63.79
2019-06-08T02:50:24.854Z,63.08
2019-06-08T02:51:24.817Z,62.27
2019-06-08T02:52:24.811Z,61.94
2019-06-08T02:53:24.795Z,62.37
2019-06-08T02:54:24.789Z,62.17
2019-06-08T02:55:24.791Z,61.25
2019-06-08T02:56:24.785Z,61.53
2019-06-08T02:57:24.748Z,61.43
2019-06-08T02:58:24.754Z,61.63
2019-06-08T02:59:24.751Z,62.14
2019-06-08T03:00:24.758Z,61.23
2019-06-08T03:01:24.732Z,61.36
2019-06-08T03:02:24.712Z,61.43
2019-06-08T03:03:24.682Z,61.23
2019-06-08T03:04:24.673Z,60.93
2019-06-08T03:05:24.690Z,62.04
2019-06-08T03:06:24.652Z,60.52
2019-06-08T03:07:24.634Z,61.53
2019-06-08T03:08:24.653Z,60.62
2019-06-08T03:09:24.623Z,60.95
2019-06-08T03:10:24.608Z,60.72
2019-06-08T03:11:24.612Z,60.72
2019-06-08T03:12:24.580Z,60.95
2019-06-08T03:13:24.577Z,61.13
2019-06-08T03:14:24.588Z,60.14
2019-06-08T03:15:24.545Z,60.42
2019-06-08T03:16:24.584Z,59.61
2019-06-08T03:17:24.529Z,60.42
2019-06-08T03:18:24.516Z,60.01
2019-06-08T03:19:24.529Z,60.62
2019-06-08T03:20:24.503Z,61.43
2019-06-08T03:21:24.503Z,61.05
2019-06-08T03:22:24.474Z,60.85
2019-06-08T03:23:24.465Z,60.11
2019-06-08T03:24:24.445Z,61.13
2019-06-08T03:25:24.465Z,61.05
2019-06-08T03:26:24.436Z,61.02
2019-06-08T03:27:24.429Z,60.85
2019-06-08T03:28:24.406Z,60.55
2019-06-08T03:29:24.397Z,60.82
2019-06-08T03:30:24.389Z,60.65
2019-06-08T03:31:24.532Z,60.55
2019-06-08T03:32:24.355Z,60.85
2019-06-08T03:33:24.353Z,60.42
2019-06-08T03:34:24.349Z,60.55
2019-06-08T03:35:24.322Z,60.65
2019-06-08T03:36:24.325Z,60.42
2019-06-08T03:37:24.321Z,60.24
2019-06-08T03:38:24.320Z,60.75
2019-06-08T03:39:24.290Z,60.44
2019-06-08T03:40:24.271Z,60.44
2019-06-08T03:41:24.264Z,60.14
2019-06-08T03:42:24.251Z,60.65
2019-06-08T03:43:24.250Z,61.25
2019-06-08T03:44:24.249Z,60.95
2019-06-08T03:45:24.209Z,60.95
2019-06-08T03:46:24.199Z,61.05
2019-06-08T03:47:24.195Z,60.65
2019-06-08T03:48:24.197Z,60.95
2019-06-08T03:49:40.584Z,60.44
2019-06-08T03:50:25.154Z,60.55
2019-06-08T03:51:24.144Z,60.24
2019-06-08T03:52:24.180Z,60.14
2019-06-08T03:53:24.131Z,59.94
2019-06-08T03:54:24.111Z,60.04
2019-06-08T03:55:24.133Z,60.04
2019-06-08T03:56:24.093Z,59.84
2019-06-08T03:57:24.078Z,59.74
2019-06-08T03:58:24.065Z,60.14
2019-06-08T03:59:24.052Z,60.24
2019-06-08T04:00:24.078Z,60.01
2019-06-08T04:01:24.055Z,60.11
2019-06-08T04:02:24.022Z,60.31
2019-06-08T04:03:24.014Z,60.42
2019-06-08T04:04:24.004Z,60.24
2019-06-08T04:05:24.013Z,60.21
2019-06-08T04:06:23.991Z,60.44
2019-06-08T04:07:24.008Z,60.62
2019-06-08T04:08:23.949Z,60.42
2019-06-08T04:09:23.946Z,60.55
2019-06-08T04:10:23.933Z,60.72
2019-06-08T04:11:23.952Z,61.16
2019-06-08T04:12:23.912Z,60.95
2019-06-08T04:13:23.925Z,61.05
2019-06-08T04:14:23.889Z,60.04
2019-06-08T04:15:23.880Z,60.75
2019-06-08T04:16:23.862Z,60.95
2019-06-08T04:17:23.862Z,60.85
2019-06-08T04:18:23.845Z,60.75
2019-06-08T04:19:23.848Z,60.95
2019-06-08T04:20:23.826Z,61.74
2019-06-08T04:21:23.827Z,60.95
2019-06-08T04:22:23.828Z,61.05
2019-06-08T04:23:23.789Z,60.65
2019-06-08T04:24:23.790Z,61.05
2019-06-08T04:25:23.779Z,60.95
2019-06-08T04:26:23.751Z,60.55
2019-06-08T04:27:23.739Z,61.16
2019-06-08T04:28:23.752Z,61.46
2019-06-08T04:29:23.721Z,61.05
2019-06-08T04:30:23.706Z,60.65
2019-06-08T04:31:23.714Z,60.44
2019-06-08T04:32:23.685Z,61.05
2019-06-08T04:33:23.709Z,60.55
2019-06-08T04:34:23.670Z,61.25
2019-06-08T04:35:23.651Z,61.16
2019-06-08T04:36:23.639Z,60.95
2019-06-08T04:37:23.650Z,60.65
2019-06-08T04:38:23.620Z,61.16
2019-06-08T04:39:23.616Z,61.05
2019-06-08T04:40:23.596Z,61.36
2019-06-08T04:41:23.587Z,61.53
2019-06-08T04:42:23.576Z,61.25
2019-06-08T04:43:23.593Z,61.16
2019-06-08T04:44:23.587Z,61.16
2019-06-08T04:45:23.548Z,61.25
2019-06-08T04:46:23.559Z,61.25
2019-06-08T04:47:23.558Z,62.48
2019-06-08T04:48:23.504Z,61.66
2019-06-08T04:49:23.516Z,62.17
2019-06-08T04:50:24.364Z,62.37
2019-06-08T04:51:23.480Z,62.17
2019-06-08T04:52:23.455Z,63.08
2019-06-08T04:53:23.445Z,62.57
2019-06-08T04:54:23.439Z,62.17
2019-06-08T04:55:23.565Z,62.27
2019-06-08T04:56:23.426Z,62.60
2019-06-08T04:57:23.414Z,63.01
2019-06-08T04:58:23.388Z,63.11
2019-06-08T04:59:23.391Z,63.11
2019-06-08T05:00:23.387Z,62.51
2019-06-08T05:01:23.403Z,62.81
2019-06-08T05:02:23.347Z,63.72
2019-06-08T05:03:23.342Z,63.21
2019-06-08T05:04:23.324Z,63.72
2019-06-08T05:05:23.324Z,63.21
2019-06-08T05:06:23.305Z,63.32
2019-06-08T05:07:23.313Z,63.52
2019-06-08T05:08:23.278Z,63.32
2019-06-08T05:09:23.271Z,63.62
2019-06-08T05:10:23.305Z,63.62
2019-06-08T05:11:23.243Z,62.91
2019-06-08T05:12:23.238Z,63.52
2019-06-08T05:13:23.267Z,64.64
2019-06-08T05:14:23.216Z,64.03
2019-06-08T05:15:23.216Z,63.82
2019-06-08T05:16:23.207Z,63.72
2019-06-08T05:17:23.182Z,63.72
2019-06-08T05:18:25.985Z,63.11
2019-06-08T05:19:23.178Z,63.52
2019-06-08T05:20:37.769Z,63.21
2019-06-08T05:21:24.186Z,63.59
2019-06-08T05:22:23.123Z,64.50
2019-06-08T05:23:23.119Z,64.40
2019-06-08T05:24:23.124Z,63.79
2019-06-08T05:25:23.105Z,64.50
2019-06-08T05:26:23.080Z,64.30
2019-06-08T05:27:23.078Z,65.52
2019-06-08T05:28:23.058Z,64.50
2019-06-08T05:29:23.066Z,63.49
2019-06-08T05:30:23.038Z,63.69
2019-06-08T05:31:23.049Z,62.78
2019-06-08T05:32:23.035Z,64.70
2019-06-08T05:33:22.999Z,63.89
2019-06-08T05:34:22.988Z,65.11
2019-06-08T05:35:22.978Z,65.11
2019-06-08T05:36:22.968Z,63.89
2019-06-08T05:37:23.006Z,63.89
2019-06-08T05:38:22.948Z,64.30
2019-06-08T05:39:22.933Z,64.30
2019-06-08T05:40:22.919Z,64.70
2019-06-08T05:41:24.187Z,64.50
2019-06-08T05:42:22.903Z,64.50
2019-06-08T05:43:22.918Z,64.50
2019-06-08T05:44:22.869Z,63.69
2019-06-08T05:45:22.863Z,64.40
2019-06-08T05:46:22.868Z,64.40
2019-06-08T05:47:22.872Z,64.50
2019-06-08T05:48:22.840Z,64.30
2019-06-08T05:49:22.843Z,63.89
2019-06-08T05:50:22.802Z,65.92
2019-06-08T05:51:22.791Z,62.17
2019-06-08T05:52:22.784Z,63.29
2019-06-08T05:53:22.791Z,62.48
2019-06-08T05:54:22.757Z,61.76
2019-06-08T05:55:22.776Z,62.10
2019-06-08T05:56:22.734Z,62.78
2019-06-08T05:57:22.730Z,63.42
2019-06-08T05:58:22.730Z,63.18
2019-06-08T05:59:22.701Z,63.18
2019-06-08T06:00:22.691Z,62.48
2019-06-08T06:01:22.698Z,62.98
2019-06-08T06:02:22.676Z,62.88
2019-06-08T06:03:22.689Z,61.36
2019-06-08T06:04:22.644Z,61.69
2019-06-08T06:05:22.634Z,61.49
2019-06-08T06:06:22.635Z,60.88
2019-06-08T06:07:22.643Z,61.59
2019-06-08T06:08:22.619Z,61.49
2019-06-08T06:09:22.594Z,62.48
2019-06-08T06:10:22.576Z,60.95
2019-06-08T06:11:22.567Z,62.17
2019-06-08T06:12:22.569Z,61.76
2019-06-08T06:13:22.570Z,61.66
2019-06-08T06:14:22.569Z,63.08
2019-06-08T06:15:22.520Z,62.37
2019-06-08T06:16:22.532Z,61.76
2019-06-08T06:17:22.509Z,61.25
2019-06-08T06:18:22.491Z,61.46
2019-06-08T06:19:22.497Z,61.56
2019-06-08T06:20:22.475Z,60.65
2019-06-08T06:21:22.458Z,60.65
2019-06-08T06:22:22.448Z,61.16
2019-06-08T06:23:22.430Z,61.16
2019-06-08T06:24:22.416Z,61.16
2019-06-08T06:25:22.487Z,60.68
2019-06-08T06:26:22.410Z,61.25
2019-06-08T06:27:22.386Z,61.76
2019-06-08T06:28:22.383Z,61.36
2019-06-08T06:29:22.362Z,62.07
2019-06-08T06:30:22.373Z,63.08
2019-06-08T06:31:22.381Z,60.55
2019-06-08T06:32:22.338Z,61.46
2019-06-08T06:33:22.318Z,62.17
2019-06-08T06:34:22.313Z,61.16
2019-06-08T06:35:22.299Z,59.53
2019-06-08T06:36:22.301Z,60.14
2019-06-08T06:37:22.358Z,60.24
2019-06-08T06:38:22.264Z,60.04
2019-06-08T06:39:22.251Z,59.91
2019-06-08T06:40:22.247Z,59.91
2019-06-08T06:41:22.247Z,59.43
2019-06-08T06:42:24.809Z,60.21
2019-06-08T06:43:22.228Z,59.33
2019-06-08T06:44:22.198Z,59.43
2019-06-08T06:45:22.188Z,58.59
2019-06-08T06:46:22.247Z,58.42
2019-06-08T06:47:22.163Z,59.74
2019-06-08T06:48:23.627Z,60.72
2019-06-08T06:49:22.180Z,60.01
2019-06-08T06:50:22.128Z,60.01
2019-06-08T06:51:26.170Z,60.42
2019-06-08T06:52:22.158Z,60.42
2019-06-08T06:53:22.099Z,59.20
2019-06-08T06:54:22.079Z,60.11
2019-06-08T06:55:25.243Z,59.41
2019-06-08T06:56:22.066Z,59.30
2019-06-08T06:57:22.084Z,60.01
2019-06-08T06:58:22.038Z,59.88
2019-06-08T06:59:22.032Z,59.91
2019-06-08T07:00:22.012Z,60.28
2019-06-08T07:01:22.046Z,59.30
2019-06-08T07:02:22.024Z,60.52
2019-06-08T07:03:21.977Z,61.10
2019-06-08T07:04:21.976Z,59.91
2019-06-08T07:05:21.966Z,59.78
2019-06-08T07:06:21.955Z,60.19
2019-06-08T07:07:21.957Z,59.78
2019-06-08T07:08:21.928Z,62.11
2019-06-08T07:09:21.910Z,62.21
2019-06-08T07:10:21.904Z,60.39
2019-06-08T07:11:21.899Z,61.10
2019-06-08T07:12:21.877Z,62.41
2019-06-08T07:13:21.936Z,60.69
2019-06-08T07:14:21.858Z,59.99
2019-06-08T07:15:21.846Z,60.06
2019-06-08T07:16:21.841Z,60.16
2019-06-08T07:17:21.826Z,61.17
2019-06-08T07:18:21.819Z,63.20
2019-06-08T07:19:21.835Z,62.38
2019-06-08T07:20:21.790Z,60.86
2019-06-08T07:21:21.776Z,60.46
2019-06-08T07:22:21.767Z,62.08
2019-06-08T07:23:21.763Z,60.77
2019-06-08T07:24:21.773Z,60.86
2019-06-08T07:25:21.758Z,62.05
2019-06-08T07:26:21.724Z,61.37
2019-06-08T07:27:21.713Z,61.75
2019-06-08T07:28:21.700Z,62.56
2019-06-08T07:29:21.712Z,62.76
2019-06-08T07:30:21.697Z,61.65
2019-06-08T07:31:21.681Z,60.43
2019-06-08T07:32:21.660Z,61.14
2019-06-08T07:33:21.648Z,60.53
2019-06-08T07:34:21.630Z,61.75
2019-06-08T07:35:21.663Z,60.43
2019-06-08T07:36:21.616Z,60.63
2019-06-08T07:37:21.627Z,60.94
2019-06-08T07:38:21.591Z,61.24
2019-06-08T07:39:21.579Z,62.05
2019-06-08T07:40:21.562Z,60.57
2019-06-08T07:41:21.561Z,62.05
2019-06-08T07:42:21.548Z,62.05
2019-06-08T07:43:21.553Z,61.14
2019-06-08T07:44:21.520Z,63.27
2019-06-08T07:45:21.507Z,63.07
2019-06-08T07:46:21.520Z,62.15
2019-06-08T07:47:21.482Z,60.43
2019-06-08T07:48:21.475Z,60.94
2019-06-08T07:49:21.485Z,60.86
2019-06-08T07:50:21.450Z,61.04
2019-06-08T07:51:21.478Z,60.94
2019-06-08T07:52:21.433Z,62.79
2019-06-08T07:53:21.420Z,62.15
2019-06-08T07:54:21.406Z,63.17
2019-06-08T07:55:21.428Z,63.30
2019-06-08T07:56:21.503Z,63.81
2019-06-08T07:57:21.388Z,62.99
2019-06-08T07:58:21.375Z,62.38
2019-06-08T07:59:21.363Z,63.67
2019-06-08T08:00:21.337Z,63.17
2019-06-08T08:01:35.299Z,63.27
2019-06-08T08:02:22.335Z,64.48
2019-06-08T08:03:21.323Z,64.28
2019-06-08T08:04:21.294Z,62.96
2019-06-08T08:05:21.287Z,62.96
2019-06-08T08:06:21.268Z,63.37
2019-06-08T08:07:21.299Z,63.37
2019-06-08T08:08:21.280Z,62.26
2019-06-08T08:09:21.238Z,62.02
2019-06-08T08:10:21.229Z,63.07
2019-06-08T08:11:21.215Z,62.63
2019-06-08T08:12:21.203Z,62.05
2019-06-08T08:13:21.204Z,63.54
2019-06-08T08:14:21.208Z,62.63
2019-06-08T08:15:21.168Z,61.82
2019-06-08T08:16:21.155Z,61.92
2019-06-08T08:17:21.164Z,61.92
2019-06-08T08:18:21.170Z,61.41
2019-06-08T08:19:21.126Z,61.62
2019-06-08T08:20:21.130Z,61.92
2019-06-08T08:21:25.471Z,62.33
2019-06-08T08:22:26.187Z,61.90
2019-06-08T08:23:22.118Z,62.90
2019-06-08T08:24:21.072Z,61.69
2019-06-08T08:25:21.060Z,63.01
2019-06-08T08:26:21.077Z,61.49
2019-06-08T08:27:21.053Z,62.19
2019-06-08T08:28:21.029Z,61.08
2019-06-08T08:29:21.020Z,62.40
2019-06-08T08:30:21.009Z,60.27
2019-06-08T08:31:20.991Z,60.68
2019-06-08T08:32:20.996Z,61.19
2019-06-08T08:33:20.975Z,61.19
2019-06-08T08:34:20.989Z,62.19
2019-06-08T08:35:20.949Z,63.71
2019-06-08T08:36:21.158Z,61.99
2019-06-08T08:37:20.923Z,61.49
2019-06-08T08:38:20.930Z,61.08
2019-06-08T08:39:20.903Z,61.59
2019-06-08T08:40:20.909Z,60.88
2019-06-08T08:41:20.911Z,60.68
2019-06-08T08:42:20.868Z,60.88
2019-06-08T08:43:23.019Z,60.68
2019-06-08T08:44:20.887Z,60.38
2019-06-08T08:45:20.842Z,60.17
2019-06-08T08:46:20.818Z,60.98
2019-06-08T08:47:20.810Z,64.39
2019-06-08T08:48:27.570Z,61.87
2019-06-08T08:49:21.786Z,60.96
2019-06-08T08:50:20.847Z,62.14
2019-06-08T08:51:20.774Z,61.23
2019-06-08T08:52:33.718Z,60.52
2019-06-08T08:53:21.742Z,60.22
2019-06-08T08:54:20.733Z,60.12
2019-06-08T08:55:20.761Z,61.71
2019-06-08T08:56:20.733Z,61.71
2019-06-08T08:57:20.698Z,60.80
2019-06-08T08:58:20.687Z,59.78
2019-06-08T08:59:20.675Z,59.78
2019-06-08T09:00:20.665Z,59.78
2019-06-08T09:01:20.687Z,58.98
2019-06-08T09:02:21.379Z,58.60
2019-06-08T09:03:29.007Z,58.60
2019-06-08T09:04:21.621Z,59.81
2019-06-08T09:05:20.620Z,59.41
2019-06-08T09:06:20.678Z,59.61
2019-06-08T09:07:20.595Z,60.32
2019-06-08T09:08:23.296Z,60.42
2019-06-08T09:09:21.688Z,59.71
2019-06-08T09:10:20.559Z,59.78
2019-06-08T09:11:20.537Z,60.93
2019-06-08T09:12:20.536Z,60.02
2019-06-08T09:13:20.513Z,60.89
2019-06-08T09:14:20.524Z,59.69
2019-06-08T09:15:20.499Z,59.58
2019-06-08T09:16:20.489Z,59.89
2019-06-08T09:17:20.507Z,59.99
2019-06-08T09:18:20.458Z,61.30
2019-06-08T09:19:20.986Z,60.06
2019-06-08T09:20:20.489Z,60.06
2019-06-08T09:21:20.426Z,60.97
2019-06-08T09:22:20.454Z,59.86
2019-06-08T09:23:21.908Z,58.14
2019-06-08T09:24:20.404Z,58.85
2019-06-08T09:25:20.388Z,58.34
2019-06-08T09:26:20.399Z,58.25
2019-06-08T09:27:20.357Z,58.04
2019-06-08T09:28:20.410Z,58.85
2019-06-08T09:29:20.333Z,59.96
2019-06-08T09:30:20.326Z,58.04
2019-06-08T09:31:20.381Z,57.21
2019-06-08T09:32:20.329Z,58.32
2019-06-08T09:33:20.293Z,56.20
2019-06-08T09:34:20.417Z,55.82
2019-06-08T09:35:21.417Z,56.20
2019-06-08T09:36:20.261Z,57.10
2019-06-08T09:37:20.244Z,58.32
2019-06-08T09:38:20.302Z,56.48
2019-06-08T09:39:20.242Z,55.62
2019-06-08T09:40:20.215Z,56.81
2019-06-08T09:41:20.200Z,57.21
2019-06-08T09:42:21.261Z,55.49
2019-06-08T09:43:20.191Z,54.58
2019-06-08T09:44:20.231Z,54.28
2019-06-08T09:45:20.171Z,54.79
2019-06-08T09:46:20.152Z,55.06
2019-06-08T09:47:20.131Z,54.68
2019-06-08T09:48:20.141Z,53.07
2019-06-08T09:49:20.152Z,53.07
2019-06-08T09:50:20.126Z,54.58
2019-06-08T09:51:20.114Z,54.58
2019-06-08T09:52:21.702Z,53.38
2019-06-08T09:53:31.672Z,54.28
2019-06-08T09:54:21.093Z,54.79
2019-06-08T09:55:20.050Z,53.78
2019-06-08T09:56:20.071Z,53.96
2019-06-08T09:57:20.025Z,54.28
2019-06-08T09:58:20.023Z,53.88
2019-06-08T09:59:19.999Z,54.25
2019-06-08T10:00:25.265Z,51.73
2019-06-08T10:01:20.981Z,51.13
2019-06-08T10:02:20.005Z,50.32
2019-06-08T10:03:19.954Z,51.40
2019-06-08T10:04:19.941Z,53.34
2019-06-08T10:05:19.963Z,50.20
2019-06-08T10:06:19.938Z,49.09
2019-06-08T10:07:19.917Z,48.49
2019-06-08T10:08:20.809Z,47.98
2019-06-08T10:09:19.885Z,49.90
2019-06-08T10:10:19.890Z,50.10
2019-06-08T10:11:19.869Z,49.59
2019-06-08T10:12:19.854Z,49.29
2019-06-08T10:13:19.859Z,50.50
2019-06-08T10:14:19.846Z,51.71
2019-06-08T10:15:19.838Z,49.39
2019-06-08T10:16:19.810Z,49.79
2019-06-08T10:17:20.945Z,49.69
2019-06-08T10:18:19.804Z,50.40
2019-06-08T10:19:19.790Z,50.48
2019-06-08T10:20:19.797Z,49.87
2019-06-08T10:21:21.111Z,50.78
2019-06-08T10:22:19.742Z,50.27
2019-06-08T10:23:30.825Z,50.37
2019-06-08T10:24:20.745Z,49.27
2019-06-08T10:25:19.712Z,49.85
2019-06-08T10:26:19.746Z,49.27
2019-06-08T10:27:19.689Z,48.56
2019-06-08T10:28:21.710Z,49.67
2019-06-08T10:29:19.690Z,48.66
2019-06-08T10:30:19.646Z,49.67
2019-06-08T10:31:27.669Z,50.68
2019-06-08T10:32:20.651Z,49.07
2019-06-08T10:33:19.619Z,49.27
2019-06-08T10:34:19.610Z,53.67
2019-06-08T10:35:21.016Z,51.16
2019-06-08T10:36:19.599Z,49.65
2019-06-08T10:37:19.573Z,50.05
2019-06-08T10:38:19.590Z,49.75
2019-06-08T10:39:19.542Z,48.96
2019-06-08T10:40:19.581Z,49.27
2019-06-08T10:41:21.847Z,50.88
2019-06-08T10:42:19.510Z,51.26
2019-06-08T10:43:19.987Z,48.56
2019-06-08T10:44:19.526Z,48.56
2019-06-08T10:45:19.498Z,48.86
2019-06-08T10:46:20.872Z,47.45
2019-06-08T10:47:19.462Z,46.87
2019-06-08T10:48:19.449Z,47.27
2019-06-08T10:49:19.576Z,45.76
2019-06-08T10:50:19.551Z,46.77
2019-06-08T10:51:19.416Z,49.79
2019-06-08T10:52:20.369Z,48.99
2019-06-08T10:53:19.392Z,50.57
2019-06-08T10:54:19.385Z,50.37
2019-06-08T10:55:19.374Z,46.14
2019-06-08T10:56:19.372Z,46.33
2019-06-08T10:57:19.351Z,45.42
2019-06-08T10:58:19.587Z,44.51
2019-06-08T10:59:19.326Z,45.42
2019-06-08T11:00:23.580Z,47.33
2019-06-08T11:01:19.304Z,47.81
2019-06-08T11:02:19.340Z,48.74
2019-06-08T11:03:19.277Z,45.62
2019-06-08T11:04:19.263Z,45.70
2019-06-08T11:05:19.253Z,45.62
2019-06-08T11:06:19.268Z,45.92
2019-06-08T11:07:19.234Z,43.30
2019-06-08T11:08:19.243Z,46.53
2019-06-08T11:09:19.392Z,43.00
2019-06-08T11:10:19.281Z,43.00
2019-06-08T11:11:20.243Z,45.42
2019-06-08T11:12:19.168Z,44.51
2019-06-08T11:13:19.172Z,43.51
2019-06-08T11:14:22.518Z,44.41
2019-06-08T11:15:19.148Z,44.51
2019-06-08T11:16:19.135Z,45.32
2019-06-08T11:17:19.125Z,45.12
2019-06-08T11:18:19.102Z,44.19
2019-06-08T11:19:19.152Z,43.38
2019-06-08T11:20:19.115Z,45.59
2019-06-08T11:21:19.110Z,44.09
2019-06-08T11:22:19.075Z,44.89
2019-06-08T11:23:19.049Z,45.09
2019-06-08T11:24:24.499Z,42.80
2019-06-08T11:25:20.184Z,43.51
2019-06-08T11:26:23.956Z,45.82
2019-06-08T11:27:20.000Z,44.51
2019-06-08T11:28:19.015Z,46.02
2019-06-08T11:29:19.034Z,46.22
2019-06-08T11:30:23.398Z,47.23
2019-06-08T11:31:19.984Z,46.00
2019-06-08T11:32:18.974Z,47.20
2019-06-08T11:33:18.936Z,44.39
2019-06-08T11:34:21.930Z,44.27
2019-06-08T11:35:18.917Z,40.86
2019-06-08T11:36:19.249Z,43.06
2019-06-08T11:37:21.040Z,44.24
2019-06-08T11:38:20.277Z,44.12
2019-06-08T11:39:18.871Z,45.63
2019-06-08T11:40:20.728Z,42.92
2019-06-08T11:41:22.467Z,41.49
2019-06-08T11:42:19.213Z,43.62
2019-06-08T11:43:18.827Z,41.19
2019-06-08T11:44:18.836Z,41.21
2019-06-08T11:45:18.805Z,42.52
2019-06-08T11:46:21.459Z,41.13
2019-06-08T11:47:18.825Z,42.82
2019-06-08T11:48:18.768Z,47.74
2019-06-08T11:49:18.929Z,41.51
2019-06-08T11:50:18.760Z,41.89
2019-06-08T11:51:18.737Z,40.50
2019-06-08T11:52:18.737Z,39.98
2019-06-08T11:53:18.707Z,39.76
2019-06-08T11:54:32.265Z,41.67
2019-06-08T11:55:19.685Z,37.96
2019-06-08T11:56:18.705Z,38.96
2019-06-08T11:57:18.677Z,39.16
2019-06-08T11:58:22.608Z,38.66
2019-06-08T11:59:18.642Z,40.57
2019-06-08T12:00:25.180Z,39.97
2019-06-08T12:01:19.620Z,38.96
2019-06-08T12:02:18.680Z,38.84
2019-06-08T12:03:18.597Z,37.85
2019-06-08T12:04:18.593Z,38.16
2019-06-08T12:05:18.574Z,39.16
2019-06-08T12:06:18.735Z,40.47
2019-06-08T12:07:18.556Z,42.47
2019-06-08T12:08:20.989Z,42.58
2019-06-08T12:09:19.010Z,39.86
2019-06-08T12:10:18.520Z,40.97
2019-06-08T12:11:22.257Z,41.17
2019-06-08T12:12:21.222Z,41.25
2019-06-08T12:13:18.518Z,39.54
2019-06-08T12:14:18.510Z,39.62
2019-06-08T12:15:21.146Z,41.13
2019-06-08T12:16:22.089Z,40.63
2019-06-08T12:17:22.228Z,38.53
2019-06-08T12:18:18.441Z,38.53
2019-06-08T12:19:20.921Z,38.82
2019-06-08T12:20:21.343Z,38.72
2019-06-08T12:21:19.387Z,38.14
2019-06-08T12:22:21.528Z,40.03
2019-06-08T12:23:18.418Z,38.22
2019-06-08T12:24:18.368Z,39.64
2019-06-08T12:25:18.354Z,38.02
2019-06-08T12:26:18.367Z,40.53
2019-06-08T12:27:29.479Z,39.73
2019-06-08T12:28:19.321Z,40.73
2019-06-08T12:29:18.887Z,39.95
2019-06-08T12:30:25.603Z,38.34
2019-06-08T12:31:22.342Z,40.35
2019-06-08T12:32:18.507Z,42.33
2019-06-08T12:33:19.133Z,40.93
2019-06-08T12:34:18.615Z,40.83
2019-06-08T12:35:18.246Z,40.91
2019-06-08T12:36:20.677Z,39.42
2019-06-08T12:37:22.145Z,41.91
2019-06-08T12:38:18.990Z,40.61
2019-06-08T12:39:19.734Z,39.89
2019-06-08T12:40:19.526Z,40.89
2019-06-08T12:41:19.350Z,41.29
2019-06-08T12:42:22.937Z,40.19
2019-06-08T12:43:20.380Z,37.98
2019-06-08T12:44:20.552Z,37.98
2019-06-08T12:45:19.954Z,42.80
2019-06-08T12:46:19.804Z,38.49
2019-06-08T12:47:25.840Z,38.18
2019-06-08T12:48:23.402Z,38.39
2019-06-08T12:49:20.398Z,38.29
2019-06-08T12:50:18.092Z,38.47
2019-06-08T12:51:19.972Z,39.07
2019-06-08T12:52:22.239Z,38.17